Airfield :
LOGIN :

Register | Disclaimer

   EN    FR    IT 

 










Legend :    VFR   Marginal VFR   IFR   Intensive IFR   Very Intensive IFR
Visi :
Ceiling :
>= 8 km
>= 3000ft
5 to 8 km
1000 to 3000 ft
1500m to 5 km
500 to 1000 ft
800 to 1500m
200 to 500 ft
< 800m
< 200 ft
Symbols :   Thunderstorms  Fog  Heavy snow  Heavy precipitations  Wind > 20 kt
SIGMETs :     Misc.  Thunderstorms  Icing  Turbulence  Mountain Waves  Volcanic Ashes






- Airport Elevation : 468 ft
- IATA code : GRO


LEGE - Girona Costa Brava

CURRENT METAR :
  • 041500Z 18015KT 140V200 9999 FEW050 17/08 Q1018

EXPIRED METARs :
  • 041430Z 19017KT 9999 FEW050 17/08 Q1018
  • 041400Z 18015KT 150V210 9999 FEW050 17/09 Q1019
  • 041330Z 18015KT 9999 FEW050 18/10 Q1019
  • 041300Z 18014KT 150V210 9999 FEW050 18/08 Q1019

TAF TAF LEGE
Valid from the 04 at 12:00 until the 05 at 12:00 UTC


041100Z 0412/0512 18012KT 9999 FEW040 TX19/0413Z TN04/0506Z
BECMG 0420/0422 VRB03KT
BECMG 0509/0511 18010KT



MET'MAP, your aeronautical weather chart ! - Copyright ORBIFLY December 2007 - Disclaimer

ORBIFLY MET'MAP TEAM :

Programming & Development : Alexandra Zaïnal
Concept & original design : Baudouin d'Aumeries
Assistance for programming : Marc-Olivier Méhu
Technical & hardware support : Manuel Goepfert

Contact : metmap@orbifly.com




SOURCES & CREDITS :

   NOAA